createdAt,value
2023-06-19T15:57:52.705Z,12.10
2023-06-19T16:00:20.966Z,9.30
2023-06-19T16:02:49.329Z,9.70
2023-06-19T16:05:17.925Z,8.20
2023-06-19T16:07:45.578Z,5.70
2023-06-19T16:10:14.388Z,6.90
2023-06-19T16:12:42.143Z,5.00
2023-06-19T16:15:13.744Z,5.30
2023-06-19T16:17:41.378Z,9.70
2023-06-19T16:20:09.676Z,8.00
2023-06-19T16:25:05.340Z,6.10
2023-06-19T16:30:00.337Z,7.30
2023-06-19T16:32:28.022Z,5.40
2023-06-19T16:34:55.822Z,7.90
2023-06-19T16:37:23.460Z,6.40
2023-06-19T16:39:51.214Z,4.30
2023-06-19T16:42:21.255Z,10.30
2023-06-19T16:44:48.798Z,10.90
2023-06-19T16:47:16.437Z,7.60
2023-06-19T16:49:44.147Z,7.40
2023-06-19T16:52:11.691Z,12.90
2023-06-19T16:54:39.298Z,11.40
2023-06-19T16:57:06.921Z,15.30
2023-06-19T16:59:34.492Z,8.20
2023-06-19T17:02:02.273Z,10.20
2023-06-19T17:04:30.040Z,6.30
2023-06-19T17:06:57.605Z,9.10
2023-06-19T17:09:25.242Z,11.30
2023-06-19T17:11:53.201Z,9.10
2023-06-19T17:14:21.968Z,14.00
2023-06-19T17:16:49.565Z,12.80
2023-06-19T17:19:17.532Z,8.30
2023-06-19T17:21:45.109Z,11.40
2023-06-19T17:24:16.402Z,10.10
2023-06-19T17:26:44.825Z,7.10
2023-06-19T17:29:12.374Z,9.00
2023-06-19T17:31:40.130Z,6.70
2023-06-19T17:34:07.650Z,6.30
2023-06-19T17:36:35.133Z,10.90
2023-06-19T17:39:03.159Z,7.90
2023-06-19T17:41:31.408Z,7.80
2023-06-19T17:46:27.991Z,10.40
2023-06-19T17:48:55.802Z,16.00
2023-06-19T17:51:24.583Z,16.80
2023-06-19T17:53:52.240Z,13.30
2023-06-19T17:56:19.931Z,12.00
2023-06-19T17:58:47.653Z,12.50
2023-06-19T18:01:15.831Z,13.40
2023-06-19T18:06:11.122Z,8.80
2023-06-19T18:08:38.754Z,11.90
2023-06-19T18:11:06.623Z,8.10
2023-06-19T18:13:34.703Z,9.60
2023-06-19T18:16:12.035Z,6.80
2023-06-19T18:18:40.286Z,9.10
2023-06-19T18:26:56.510Z,9.60
2023-06-19T18:29:24.178Z,7.80
2023-06-19T18:31:51.294Z,10.20
2023-06-19T18:34:18.261Z,6.90
2023-06-19T18:36:45.051Z,9.50
2023-06-19T18:39:11.907Z,9.00
2023-06-19T18:41:38.656Z,8.90
2023-06-19T18:44:05.568Z,7.90
2023-06-19T18:46:33.119Z,8.80
2023-06-19T18:49:00.335Z,9.10
2023-06-19T18:51:27.215Z,8.70
2023-06-19T18:53:54.192Z,9.90
2023-06-19T18:56:21.058Z,15.00
2023-06-19T18:58:48.269Z,9.20
2023-06-19T19:01:15.347Z,10.60
2023-06-19T19:03:42.804Z,15.70
2023-06-19T19:06:10.356Z,13.80
2023-06-19T19:08:37.281Z,12.90
2023-06-19T19:11:05.372Z,15.20
2023-06-19T19:13:32.815Z,15.70
2023-06-19T19:15:59.993Z,16.00
2023-06-19T19:18:27.391Z,14.50
2023-06-19T19:20:54.316Z,19.20
2023-06-19T19:23:21.724Z,19.30
2023-06-19T19:25:48.679Z,19.00
2023-06-19T19:28:17.353Z,15.20
2023-06-19T19:30:44.593Z,14.00
2023-06-19T19:33:11.545Z,12.20
2023-06-19T19:35:38.768Z,15.30
2023-06-19T19:38:05.834Z,13.00
2023-06-19T19:40:32.831Z,12.60
2023-06-19T19:43:01.000Z,21.60
2023-06-19T19:45:28.208Z,13.50
2023-06-19T19:47:55.507Z,12.80
2023-06-19T19:50:22.794Z,13.40
2023-06-19T19:52:50.259Z,14.30
2023-06-19T19:55:17.130Z,15.50
2023-06-19T19:57:44.008Z,16.30
2023-06-19T20:00:11.895Z,14.90
2023-06-19T20:02:39.598Z,15.20
2023-06-19T20:05:07.110Z,20.90
2023-06-19T20:07:34.048Z,11.40
2023-06-19T20:10:01.411Z,17.20
2023-06-19T20:12:28.416Z,15.80
2023-06-19T20:14:56.638Z,12.20
2023-06-19T20:17:23.713Z,15.50
2023-06-19T20:19:52.708Z,14.50
2023-06-19T20:22:19.667Z,15.90
2023-06-19T20:24:46.821Z,14.80
2023-06-19T20:27:16.424Z,15.50
2023-06-19T20:29:43.471Z,15.70
2023-06-19T20:32:10.408Z,19.40
2023-06-19T20:34:37.684Z,16.00
2023-06-19T20:37:05.368Z,20.10
2023-06-19T20:39:34.489Z,20.20
2023-06-19T20:42:03.091Z,26.30
2023-06-19T20:44:30.429Z,22.30
2023-06-19T20:46:59.861Z,18.40
2023-06-19T20:49:28.597Z,26.00
2023-06-19T20:51:55.535Z,19.00
2023-06-19T20:54:22.374Z,17.00
2023-06-19T20:56:49.697Z,18.80
2023-06-19T20:59:16.517Z,19.90
2023-06-19T21:01:44.240Z,18.10
2023-06-19T21:04:11.265Z,16.60
2023-06-19T21:06:38.345Z,11.70
2023-06-19T21:09:06.871Z,22.20
2023-06-19T21:11:34.500Z,22.50
2023-06-19T21:14:01.578Z,11.10
2023-06-19T21:16:28.470Z,12.00
2023-06-19T21:18:55.549Z,14.30
2023-06-19T21:21:22.499Z,14.50
2023-06-19T21:23:49.512Z,13.70
2023-06-19T21:26:16.667Z,14.70
2023-06-19T21:28:43.671Z,16.90
2023-06-19T21:31:10.743Z,13.40
2023-06-19T21:33:37.843Z,19.70
2023-06-19T21:36:05.266Z,17.80
2023-06-19T21:38:33.981Z,22.30
2023-06-19T21:41:04.177Z,18.10
2023-06-19T21:43:31.699Z,21.90
2023-06-19T21:45:59.800Z,15.70
2023-06-19T21:48:27.726Z,14.70
2023-06-19T21:50:55.044Z,13.80
2023-06-19T21:53:22.464Z,14.60
2023-06-19T21:55:49.515Z,19.80
2023-06-19T21:58:16.554Z,17.10
2023-06-19T22:00:43.431Z,15.30
2023-06-19T22:03:10.543Z,13.20
2023-06-19T22:05:37.690Z,22.00
2023-06-19T22:08:04.820Z,17.00
2023-06-19T22:10:32.629Z,16.10
2023-06-19T22:12:59.494Z,23.00
2023-06-19T22:15:26.321Z,28.20
2023-06-19T22:17:53.238Z,23.40
2023-06-19T22:20:20.777Z,26.60
2023-06-19T22:22:48.121Z,26.70
2023-06-19T22:25:15.189Z,26.40
2023-06-19T22:27:44.647Z,19.40
2023-06-19T22:32:39.146Z,21.80
2023-06-19T22:35:06.627Z,21.50
2023-06-19T22:37:34.715Z,15.90
2023-06-19T22:40:01.566Z,18.40
2023-06-19T22:42:28.833Z,18.20
2023-06-19T22:44:55.763Z,19.50
2023-06-19T22:47:23.098Z,19.40
2023-06-19T22:49:50.231Z,16.60
2023-06-19T22:52:18.131Z,18.50
2023-06-19T22:54:45.186Z,18.20
2023-06-19T22:57:12.203Z,20.20
2023-06-19T22:59:39.364Z,16.20
2023-06-19T23:02:06.235Z,17.10
2023-06-19T23:04:33.057Z,18.30
2023-06-19T23:07:02.240Z,19.00
2023-06-19T23:09:30.724Z,15.90
2023-06-19T23:11:57.868Z,19.70
2023-06-19T23:14:25.019Z,13.90
2023-06-19T23:16:51.920Z,23.20
2023-06-19T23:19:19.108Z,17.10
2023-06-19T23:21:46.104Z,19.40
2023-06-19T23:24:13.126Z,17.60
2023-06-19T23:26:40.073Z,19.50
2023-06-19T23:29:07.771Z,13.00
2023-06-19T23:31:35.038Z,17.40
2023-06-19T23:34:02.997Z,16.70
2023-06-19T23:36:30.553Z,19.10
2023-06-19T23:38:57.614Z,19.50
2023-06-19T23:41:24.607Z,16.80
2023-06-19T23:43:51.951Z,14.90
2023-06-19T23:46:19.225Z,16.10
2023-06-19T23:48:46.440Z,14.60
2023-06-19T23:51:13.772Z,14.90
2023-06-19T23:53:40.664Z,13.00
2023-06-19T23:56:07.362Z,18.50
2023-06-19T23:58:35.024Z,16.60
